Time;durP1;ratioP1;P1;durP2;ratioP2;P2;SDS_P1;SDS_P2;PMS_P1;PMS_P2;Temp;Humidity;BMP_temperature;BMP_pressure;BME280_temperature;BME280_humidity;BME280_pressure;Samples;Min_cycle;Max_cycle;Signal;HPM_P1;HPM_P2
2021/07/02 00:00:45;;;;;;;21.85;16.20;;;20.60;75.10;;;;;;5070076;28;20119;-63
2021/07/02 00:03:11;;;;;;;22.35;14.43;;;20.60;74.60;;;;;;5071108;28;20051;-63
2021/07/02 00:05:37;;;;;;;19.02;12.93;;;20.60;74.60;;;;;;5075161;28;20036;-63
2021/07/02 00:08:03;;;;;;;18.50;13.55;;;20.50;74.80;;;;;;5070022;28;20075;-63
2021/07/02 00:10:29;;;;;;;14.80;10.25;;;20.50;75.00;;;;;;5069648;28;20036;-63
2021/07/02 00:12:55;;;;;;;14.25;9.32;;;20.40;74.90;;;;;;5070298;28;20055;-63
2021/07/02 00:15:21;;;;;;;15.23;10.57;;;20.50;75.10;;;;;;5070786;28;20480;-63
2021/07/02 00:17:47;;;;;;;16.73;11.50;;;20.40;74.80;;;;;;5071761;28;20039;-63
2021/07/02 00:20:14;;;;;;;19.65;13.57;;;20.40;74.60;;;;;;5070814;28;20134;-64
2021/07/02 00:22:39;;;;;;;12.57;9.65;;;20.50;75.10;;;;;;5070251;28;20397;-64
2021/07/02 00:25:06;;;;;;;14.30;11.32;;;20.40;74.60;;;;;;5070215;28;20040;-64
2021/07/02 00:27:32;;;;;;;13.55;10.10;;;20.50;74.60;;;;;;5070195;28;20041;-64
2021/07/02 00:29:58;;;;;;;17.67;11.82;;;20.50;74.60;;;;;;5069678;28;20037;-63
2021/07/02 00:32:24;;;;;;;14.57;9.55;;;20.40;74.50;;;;;;5069858;28;20200;-63
2021/07/02 00:34:50;;;;;;;14.43;9.15;;;20.40;74.70;;;;;;5070093;28;20044;-63
2021/07/02 00:37:16;;;;;;;16.63;10.65;;;20.40;74.70;;;;;;5070773;28;20035;-63
2021/07/02 00:39:41;;;;;;;14.80;9.65;;;20.40;74.60;;;;;;5070092;28;20040;-63
2021/07/02 00:42:07;;;;;;;11.65;9.07;;;20.40;74.60;;;;;;5070201;28;20785;-63
2021/07/02 00:44:47;;;;;;;14.55;10.40;;;20.50;74.40;;;;;;5070639;28;20044;-64
2021/07/02 00:47:15;;;;;;;21.23;12.60;;;20.40;74.00;;;;;;5069215;28;20059;-63
2021/07/02 00:49:41;;;;;;;16.38;12.15;;;20.30;74.30;;;;;;5069077;28;20046;-63
2021/07/02 00:52:09;;;;;;;16.30;11.18;;;20.30;74.20;;;;;;5069542;28;20047;-63
2021/07/02 00:54:36;;;;;;;12.90;9.60;;;20.40;74.30;;;;;;5069983;28;20508;-63
2021/07/02 00:57:04;;;;;;;16.02;9.88;;;20.40;74.30;;;;;;5070770;28;20044;-63
2021/07/02 00:59:31;;;;;;;11.68;8.88;;;20.30;74.40;;;;;;5069314;28;20032;-63
2021/07/02 01:01:58;;;;;;;13.43;9.02;;;20.20;74.70;;;;;;5069253;28;20039;-63
2021/07/02 01:04:24;;;;;;;16.63;10.77;;;20.20;75.20;;;;;;5074398;28;20115;-63
2021/07/02 01:06:51;;;;;;;14.32;9.05;;;20.20;74.40;;;;;;5075070;28;20111;-63
2021/07/02 01:09:18;;;;;;;16.17;10.88;;;20.30;74.30;;;;;;5076124;28;20074;-63
2021/07/02 01:11:44;;;;;;;18.27;11.60;;;20.40;74.00;;;;;;5075754;28;20036;-63
2021/07/02 01:14:10;;;;;;;14.45;8.68;;;20.30;73.70;;;;;;5069233;28;20040;-63
2021/07/02 01:16:39;;;;;;;16.40;12.10;;;20.30;74.00;;;;;;5071099;28;20043;-63
2021/07/02 01:19:06;;;;;;;14.38;9.05;;;20.20;73.90;;;;;;5071399;28;20037;-63
2021/07/02 01:21:32;;;;;;;11.75;8.10;;;20.20;74.00;;;;;;5069112;28;22341;-63
2021/07/02 01:23:58;;;;;;;10.60;7.93;;;20.10;74.30;;;;;;5069284;28;20036;-63
2021/07/02 01:26:25;;;;;;;10.75;7.82;;;20.10;74.40;;;;;;5071579;28;20436;-63
2021/07/02 01:28:51;;;;;;;13.50;10.25;;;20.20;74.40;;;;;;5068929;28;22235;-63
2021/07/02 01:31:17;;;;;;;10.98;8.27;;;20.20;74.10;;;;;;5068660;28;20470;-63
2021/07/02 01:33:43;;;;;;;14.43;10.43;;;20.20;74.20;;;;;;5071537;28;20141;-63
2021/07/02 01:36:16;;;;;;;12.25;8.43;;;20.30;73.90;;;;;;5069050;28;20067;-63
2021/07/02 01:38:42;;;;;;;10.07;8.00;;;20.30;73.80;;;;;;5068935;28;20527;-63
2021/07/02 01:41:07;;;;;;;10.77;8.30;;;20.20;74.00;;;;;;5069594;28;20055;-63
2021/07/02 01:43:34;;;;;;;11.52;7.80;;;20.30;74.10;;;;;;5068164;28;20055;-63
2021/07/02 01:46:00;;;;;;;10.52;7.40;;;20.20;74.00;;;;;;5055451;28;20518;-63
2021/07/02 01:48:26;;;;;;;8.55;7.25;;;20.20;74.20;;;;;;5071314;28;22265;-63
2021/07/02 01:50:52;;;;;;;9.57;6.88;;;20.20;74.10;;;;;;5069261;28;20033;-63
2021/07/02 01:53:18;;;;;;;13.60;8.68;;;20.20;74.10;;;;;;5068574;28;20072;-64
2021/07/02 01:55:44;;;;;;;14.52;8.02;;;20.30;73.90;;;;;;5068816;28;20162;-63
2021/07/02 01:58:10;;;;;;;9.52;7.03;;;20.30;73.80;;;;;;5068394;28;20045;-63
2021/07/02 02:00:36;;;;;;;10.30;7.93;;;20.30;73.80;;;;;;5071973;28;20040;-64
2021/07/02 02:03:02;;;;;;;15.65;10.30;;;20.20;74.30;;;;;;5068469;28;20046;-69
2021/07/02 02:05:28;;;;;;;10.63;7.43;;;20.30;73.50;;;;;;5068840;28;20093;-65
2021/07/02 02:07:54;;;;;;;11.52;7.97;;;20.30;73.50;;;;;;5069225;28;20045;-64
2021/07/02 02:10:20;;;;;;;11.07;7.70;;;20.30;73.50;;;;;;5068619;28;20374;-63
2021/07/02 02:12:46;;;;;;;8.65;7.40;;;20.30;73.50;;;;;;5074600;28;20036;-63
2021/07/02 02:15:13;;;;;;;8.75;7.43;;;20.30;73.50;;;;;;5069334;28;20060;-63
2021/07/02 02:17:39;;;;;;;11.93;6.88;;;20.40;73.40;;;;;;5068873;28;20043;-64
2021/07/02 02:20:09;;;;;;;9.90;7.43;;;20.40;73.40;;;;;;5068262;28;20146;-64
2021/07/02 02:22:35;;;;;;;10.07;7.60;;;20.40;73.30;;;;;;5069911;28;20484;-63
2021/07/02 02:25:01;;;;;;;17.10;9.75;;;20.40;73.20;;;;;;5068613;28;20040;-63
2021/07/02 02:27:27;;;;;;;11.05;8.07;;;20.40;73.00;;;;;;5073069;28;20036;-63
2021/07/02 02:29:53;;;;;;;11.55;7.18;;;20.30;72.90;;;;;;5069186;28;20076;-64
2021/07/02 02:32:18;;;;;;;12.00;8.48;;;20.30;73.30;;;;;;5069925;28;20043;-63
2021/07/02 02:34:45;;;;;;;14.48;9.43;;;20.30;73.20;;;;;;5069640;28;20048;-63
2021/07/02 02:37:11;;;;;;;15.70;9.95;;;20.30;73.10;;;;;;5069713;28;20036;-63
2021/07/02 02:39:37;;;;;;;10.52;8.05;;;20.40;73.10;;;;;;5068749;28;20499;-63
2021/07/02 02:42:03;;;;;;;11.60;7.30;;;20.30;73.30;;;;;;5069971;28;20040;-64
2021/07/02 02:44:29;;;;;;;11.45;7.88;;;20.30;73.30;;;;;;5068928;28;20040;-62
2021/07/02 02:46:55;;;;;;;14.57;8.20;;;20.30;73.20;;;;;;5067921;28;20024;-63
2021/07/02 02:49:21;;;;;;;11.13;8.35;;;20.30;73.10;;;;;;5068177;28;20043;-63
2021/07/02 02:51:47;;;;;;;13.52;8.38;;;20.30;73.20;;;;;;5074261;28;20040;-63
2021/07/02 02:54:13;;;;;;;13.48;8.68;;;20.20;73.10;;;;;;5068749;28;20040;-64
2021/07/02 02:57:03;;;;;;;23.40;11.30;;;20.30;73.20;;;;;;5069173;28;20427;-63
2021/07/02 02:59:24;;;;;;;20.83;9.52;;;20.30;73.00;;;;;;5072067;28;20036;-63
2021/07/02 03:01:50;;;;;;;12.95;7.60;;;20.30;72.90;;;;;;5071579;28;20060;-63
2021/07/02 03:04:16;;;;;;;14.13;8.45;;;20.30;73.00;;;;;;5064573;28;20468;-63
2021/07/02 03:06:41;;;;;;;19.75;9.98;;;20.30;73.30;;;;;;5071770;28;20040;-63
2021/07/02 03:09:08;;;;;;;15.23;8.90;;;20.20;73.10;;;;;;5072094;28;20134;-63
2021/07/02 03:11:34;;;;;;;13.55;7.57;;;20.30;73.20;;;;;;5070956;28;20115;-63
2021/07/02 03:13:59;;;;;;;12.63;7.25;;;20.20;73.30;;;;;;5071651;28;20044;-63
2021/07/02 03:16:25;;;;;;;19.02;9.23;;;20.20;73.30;;;;;;5071184;28;20388;-63
2021/07/02 03:18:51;;;;;;;12.27;7.00;;;20.30;73.30;;;;;;5077844;28;20153;-63
2021/07/02 03:21:16;;;;;;;13.52;6.93;;;20.30;73.10;;;;;;5076245;28;20036;-63
2021/07/02 03:23:42;;;;;;;11.50;6.82;;;20.30;73.00;;;;;;5070571;28;20040;-64
2021/07/02 03:26:08;;;;;;;12.98;7.13;;;20.30;73.10;;;;;;5070596;28;20047;-63
2021/07/02 03:28:35;;;;;;;13.85;7.93;;;20.40;73.10;;;;;;5071647;28;20048;-63
2021/07/02 03:31:02;;;;;;;13.38;6.93;;;20.30;72.80;;;;;;5071546;28;20264;-63
2021/07/02 03:33:27;;;;;;;14.10;7.80;;;20.30;72.90;;;;;;5072041;28;20047;-63
2021/07/02 03:35:53;;;;;;;12.95;7.32;;;20.30;73.20;;;;;;5070991;28;20126;-63
2021/07/02 03:38:20;;;;;;;13.02;7.03;;;20.30;73.00;;;;;;5071477;28;20036;-63
2021/07/02 03:40:46;;;;;;;10.90;7.03;;;20.30;73.00;;;;;;5071000;28;20040;-64
2021/07/02 03:43:12;;;;;;;17.50;7.75;;;20.30;72.90;;;;;;5071644;28;20520;-64
2021/07/02 03:45:37;;;;;;;13.00;7.78;;;20.30;73.00;;;;;;5070730;28;20463;-63
2021/07/02 03:48:04;;;;;;;13.45;8.38;;;20.20;72.90;;;;;;5071167;28;20032;-64
2021/07/02 03:50:29;;;;;;;13.27;8.10;;;20.10;72.80;;;;;;5071271;28;20043;-63
2021/07/02 03:52:55;;;;;;;14.32;7.88;;;20.00;73.10;;;;;;5070565;28;20040;-63
2021/07/02 03:55:21;;;;;;;13.15;6.55;;;20.10;73.40;;;;;;5076518;28;20033;-63
2021/07/02 03:57:47;;;;;;;9.93;7.03;;;20.20;73.30;;;;;;5070652;28;20082;-63
2021/07/02 04:00:13;;;;;;;10.07;6.32;;;20.20;72.90;;;;;;5070953;28;20045;-64
2021/07/02 04:02:39;;;;;;;11.57;7.10;;;20.30;73.00;;;;;;5071103;28;20055;-63
2021/07/02 04:05:05;;;;;;;9.88;6.53;;;20.20;73.00;;;;;;5070132;28;20040;-64
2021/07/02 04:07:31;;;;;;;7.85;5.78;;;20.30;72.80;;;;;;5070445;28;20086;-63
2021/07/02 04:09:57;;;;;;;9.63;6.05;;;20.30;72.70;;;;;;5069436;28;20036;-63
2021/07/02 04:12:23;;;;;;;8.95;5.95;;;20.40;72.70;;;;;;5070510;28;20043;-64
2021/07/02 04:14:49;;;;;;;11.55;6.10;;;20.40;72.40;;;;;;5076718;28;20067;-63
2021/07/02 04:17:15;;;;;;;10.77;6.13;;;20.40;72.40;;;;;;5071631;28;20043;-63
2021/07/02 04:19:41;;;;;;;8.60;6.20;;;20.50;72.30;;;;;;5069587;28;20047;-63
2021/07/02 04:22:08;;;;;;;7.35;5.60;;;20.50;72.20;;;;;;5069922;28;20044;-62
2021/07/02 04:24:34;;;;;;;9.35;6.10;;;20.50;72.10;;;;;;5069877;28;20043;-63
2021/07/02 04:26:59;;;;;;;12.25;6.93;;;20.50;72.00;;;;;;5070350;28;20036;-63
2021/07/02 04:29:26;;;;;;;11.23;6.03;;;20.50;72.50;;;;;;5070166;28;20035;-63
2021/07/02 04:31:52;;;;;;;6.80;5.55;;;20.50;72.00;;;;;;5070757;28;20044;-63
2021/07/02 04:34:18;;;;;;;8.32;6.32;;;20.40;72.00;;;;;;5068722;28;20048;-62
2021/07/02 04:36:45;;;;;;;8.13;5.55;;;20.40;72.00;;;;;;5069485;28;20240;-63
2021/07/02 04:39:11;;;;;;;8.60;4.95;;;20.40;72.20;;;;;;5070786;28;20514;-62
2021/07/02 04:41:38;;;;;;;8.38;5.63;;;20.40;72.20;;;;;;5070383;28;20036;-64
2021/07/02 04:44:04;;;;;;;9.00;4.95;;;20.50;72.10;;;;;;5070165;28;20067;-64
2021/07/02 04:46:32;;;;;;;9.88;6.05;;;20.40;72.20;;;;;;5071421;28;20047;-63
2021/07/02 04:48:58;;;;;;;11.35;6.25;;;20.30;72.40;;;;;;5070085;28;20488;-63
2021/07/02 04:51:23;;;;;;;11.27;5.28;;;20.30;72.40;;;;;;5069113;28;20028;-63
2021/07/02 04:53:49;;;;;;;17.58;7.75;;;20.30;72.50;;;;;;5069615;28;20090;-63
2021/07/02 04:56:15;;;;;;;11.32;6.25;;;20.40;72.00;;;;;;5069674;28;20041;-63
2021/07/02 04:58:43;;;;;;;8.93;5.55;;;20.40;72.20;;;;;;5070455;28;20039;-64
2021/07/02 05:01:09;;;;;;;10.07;5.88;;;20.50;72.10;;;;;;5069985;28;20573;-64
2021/07/02 05:03:35;;;;;;;12.32;6.35;;;20.50;72.00;;;;;;5069019;28;20054;-64
2021/07/02 05:06:02;;;;;;;9.57;5.97;;;20.50;72.00;;;;;;5067933;28;20044;-64
2021/07/02 05:08:29;;;;;;;11.65;6.20;;;20.50;71.70;;;;;;5069534;28;20024;-63
2021/07/02 05:10:56;;;;;;;8.13;5.65;;;20.50;71.70;;;;;;5068140;28;20125;-63
2021/07/02 05:13:22;;;;;;;11.10;5.85;;;20.50;71.80;;;;;;5068835;28;20119;-63
2021/07/02 05:15:49;;;;;;;10.98;5.90;;;20.60;71.70;;;;;;5069527;28;20072;-63
2021/07/02 05:18:15;;;;;;;10.57;5.80;;;20.60;71.60;;;;;;5069107;28;20036;-63
2021/07/02 05:20:44;;;;;;;11.65;8.10;;;20.60;71.50;;;;;;5069077;28;20036;-64
2021/07/02 05:23:10;;;;;;;11.20;6.85;;;20.60;71.10;;;;;;5069501;28;20055;-63
2021/07/02 05:25:36;;;;;;;15.68;7.78;;;20.60;71.30;;;;;;5072823;28;20480;-63
2021/07/02 05:28:03;;;;;;;11.57;5.88;;;20.60;71.10;;;;;;5068577;28;20036;-63
2021/07/02 05:30:29;;;;;;;10.45;5.88;;;20.60;71.40;;;;;;5069302;28;20101;-64
2021/07/02 05:32:55;;;;;;;19.00;7.40;;;20.60;71.30;;;;;;5071855;28;20032;-63
2021/07/02 05:35:21;;;;;;;12.35;6.55;;;20.60;71.20;;;;;;5073216;28;20060;-63
2021/07/02 05:37:47;;;;;;;13.07;6.22;;;20.50;71.50;;;;;;5067930;28;20036;-63
2021/07/02 05:40:14;;;;;;;9.75;5.80;;;20.40;71.70;;;;;;5072791;28;20047;-63
2021/07/02 05:42:41;;;;;;;11.82;5.63;;;20.40;71.90;;;;;;5068792;28;20040;-63
2021/07/02 05:45:08;;;;;;;9.60;5.43;;;20.40;71.90;;;;;;5072959;28;20067;-63
2021/07/02 05:47:50;;;;;;;9.98;5.72;;;20.40;71.90;;;;;;5068289;28;20047;-63
2021/07/02 05:50:18;;;;;;;10.15;5.43;;;20.50;71.80;;;;;;5068864;28;20123;-64
2021/07/02 05:52:44;;;;;;;13.63;5.72;;;20.50;71.70;;;;;;5073685;28;20047;-63
2021/07/02 05:55:12;;;;;;;18.05;7.57;;;20.50;72.50;;;;;;5070324;28;20460;-63
2021/07/02 05:57:39;;;;;;;15.13;7.28;;;20.50;74.00;;;;;;5073476;28;20044;-64
2021/07/02 06:00:06;;;;;;;22.33;8.18;;;20.60;75.70;;;;;;5068450;28;20082;-63
2021/07/02 06:02:32;;;;;;;17.77;7.30;;;20.60;77.30;;;;;;5067616;28;20097;-64
2021/07/02 06:04:58;;;;;;;16.48;8.27;;;20.60;77.80;;;;;;5068458;28;20515;-64
2021/07/02 06:07:23;;;;;;;19.02;7.25;;;20.60;78.60;;;;;;5068660;28;20055;-63
2021/07/02 06:09:49;;;;;;;25.83;7.50;;;20.60;79.30;;;;;;5071097;28;20117;-64
2021/07/02 06:12:36;;;;;;;18.17;8.30;;;20.60;78.70;;;;;;5067557;28;20056;-63
2021/07/02 06:15:02;;;;;;;10.98;7.05;;;20.50;77.50;;;;;;5051410;28;20040;-63
2021/07/02 06:17:27;;;;;;;18.25;7.72;;;20.40;77.90;;;;;;5068092;28;20476;-63
2021/07/02 06:19:53;;;;;;;16.58;7.28;;;20.40;78.60;;;;;;5068693;28;20037;-63
2021/07/02 06:22:19;;;;;;;18.23;8.93;;;20.40;78.70;;;;;;5068251;28;20040;-63
2021/07/02 06:24:45;;;;;;;17.60;9.43;;;20.40;76.80;;;;;;5069595;28;20062;-60
2021/07/02 06:27:11;;;;;;;21.00;10.23;;;20.30;76.40;;;;;;5074150;28;20503;-59
2021/07/02 06:29:36;;;;;;;22.75;11.00;;;20.30;77.00;;;;;;5060006;28;20036;-59
2021/07/02 06:32:02;;;;;;;17.35;9.80;;;20.30;78.10;;;;;;5068450;28;20036;-63
2021/07/02 06:34:28;;;;;;;19.42;9.45;;;20.30;77.80;;;;;;5071765;28;20060;-62
2021/07/02 06:36:55;;;;;;;17.23;8.52;;;20.30;77.80;;;;;;5071217;28;20048;-63
2021/07/02 06:39:20;;;;;;;17.33;8.57;;;20.40;77.70;;;;;;5071075;28;20048;-63
2021/07/02 06:41:46;;;;;;;15.20;8.93;;;20.40;76.70;;;;;;5070727;28;21060;-59
2021/07/02 06:44:12;;;;;;;19.25;9.60;;;20.50;76.90;;;;;;5072068;28;20036;-59
2021/07/02 06:46:58;;;;;;;18.10;8.13;;;20.50;77.00;;;;;;5080685;28;20404;-59
2021/07/02 06:49:24;;;;;;;16.83;7.85;;;20.60;76.70;;;;;;5071901;28;20056;-59
2021/07/02 06:51:50;;;;;;;40.17;8.70;;;20.60;76.10;;;;;;5071285;28;20035;-59
2021/07/02 06:54:16;;;;;;;21.17;8.30;;;20.60;75.80;;;;;;5072511;28;20052;-59
2021/07/02 06:57:00;;;;;;;20.10;8.00;;;20.60;75.00;;;;;;5069993;28;20032;-59
2021/07/02 06:59:30;;;;;;;16.45;7.28;;;20.60;74.30;;;;;;5069639;28;20044;-59
2021/07/02 07:01:57;;;;;;;16.48;7.78;;;20.60;74.30;;;;;;5070914;28;20063;-59
2021/07/02 07:04:24;;;;;;;18.45;7.70;;;20.70;74.30;;;;;;5070218;28;20066;-59
2021/07/02 07:06:50;;;;;;;13.90;7.70;;;20.70;73.50;;;;;;5071274;28;20036;-59
2021/07/02 07:09:16;;;;;;;13.52;7.30;;;20.60;73.10;;;;;;5072815;28;20036;-59
2021/07/02 07:11:42;;;;;;;16.08;6.97;;;20.60;73.30;;;;;;5072178;28;20530;-59
2021/07/02 07:14:08;;;;;;;12.57;6.80;;;20.60;73.40;;;;;;5074997;28;20704;-59
2021/07/02 07:16:34;;;;;;;12.75;6.68;;;20.60;73.40;;;;;;5070805;28;20043;-59
2021/07/02 07:19:00;;;;;;;14.88;5.60;;;20.70;73.30;;;;;;5074115;28;20044;-59
2021/07/02 07:21:26;;;;;;;16.48;8.30;;;20.80;73.10;;;;;;5074322;28;20064;-59
2021/07/02 07:23:52;;;;;;;12.88;7.60;;;20.80;72.50;;;;;;5075324;28;20041;-60
2021/07/02 07:26:18;;;;;;;9.23;6.28;;;20.90;72.00;;;;;;5071632;28;20105;-61
2021/07/02 07:28:43;;;;;;;12.50;7.57;;;20.90;72.20;;;;;;5069967;28;20032;-64
2021/07/02 07:31:10;;;;;;;13.73;8.20;;;20.90;71.90;;;;;;5080326;28;20039;-63
2021/07/02 07:33:40;;;;;;;12.65;6.53;;;20.90;71.60;;;;;;5074328;28;20044;-59
2021/07/02 07:36:08;;;;;;;12.95;6.22;;;21.00;72.00;;;;;;5070178;28;20143;-59
2021/07/02 07:38:34;;;;;;;13.68;6.40;;;21.00;72.00;;;;;;5071203;28;20037;-60
2021/07/02 07:41:01;;;;;;;8.77;5.38;;;21.20;71.80;;;;;;5070362;28;20056;-59
2021/07/02 07:43:27;;;;;;;13.75;8.20;;;21.20;71.70;;;;;;5068932;28;20152;-67
2021/07/02 07:45:53;;;;;;;13.82;8.43;;;21.30;71.10;;;;;;5077133;28;20040;-63
2021/07/02 07:48:19;;;;;;;14.75;7.88;;;21.20;70.90;;;;;;5071106;28;20036;-63
2021/07/02 07:50:49;;;;;;;11.18;6.50;;;21.30;71.00;;;;;;5070190;28;20037;-62
2021/07/02 07:53:15;;;;;;;15.20;8.07;;;21.10;71.20;;;;;;5070703;28;20045;-63
2021/07/02 07:55:41;;;;;;;13.60;5.97;;;21.10;71.50;;;;;;5070920;28;20041;-63
2021/07/02 07:58:07;;;;;;;9.05;5.45;;;21.10;71.40;;;;;;5070178;28;20460;-63
2021/07/02 08:00:33;;;;;;;11.18;7.60;;;21.20;71.20;;;;;;5070001;28;21281;-60
2021/07/02 08:03:00;;;;;;;12.20;6.55;;;21.30;71.00;;;;;;5069444;28;20040;-61
2021/07/02 08:05:28;;;;;;;11.95;6.55;;;21.30;70.80;;;;;;5070784;28;20149;-61
2021/07/02 08:07:54;;;;;;;14.63;7.03;;;21.30;70.80;;;;;;5070896;28;20041;-60
2021/07/02 08:10:21;;;;;;;12.15;7.47;;;21.30;70.80;;;;;;5075591;28;20098;-60
2021/07/02 08:12:50;;;;;;;10.55;6.68;;;21.20;70.70;;;;;;5070908;28;20167;-60
2021/07/02 08:15:17;;;;;;;12.48;7.97;;;21.20;70.90;;;;;;5070258;28;20042;-60
2021/07/02 08:17:43;;;;;;;13.10;7.80;;;21.20;70.80;;;;;;5075221;28;20116;-61
2021/07/02 08:20:10;;;;;;;14.20;9.35;;;21.10;71.00;;;;;;5071543;28;20163;-60
2021/07/02 08:22:38;;;;;;;17.70;10.02;;;21.00;71.00;;;;;;5075053;28;20056;-61
2021/07/02 08:25:05;;;;;;;14.82;9.07;;;21.00;71.00;;;;;;5076537;28;20032;-60
2021/07/02 08:29:22;;;;;;;9.70;6.75;;;20.90;71.30;;;;;;5070907;28;20035;-61
2021/07/02 08:30:20;;;;;;;8.85;6.95;;;20.70;71.80;;;;;;5071515;28;20036;-61
2021/07/02 08:32:46;;;;;;;14.15;8.30;;;20.70;72.20;;;;;;5074033;28;20083;-61
2021/07/02 08:35:14;;;;;;;8.85;6.20;;;20.70;72.40;;;;;;5067756;28;20787;-60
2021/07/02 08:37:41;;;;;;;18.60;10.15;;;20.60;72.50;;;;;;5076945;28;20118;-60
2021/07/02 08:40:07;;;;;;;11.40;6.93;;;20.70;72.30;;;;;;5072046;28;20036;-60
2021/07/02 08:42:34;;;;;;;13.85;8.68;;;20.70;72.30;;;;;;5069806;28;20040;-60
2021/07/02 08:45:02;;;;;;;9.10;4.90;;;20.70;72.30;;;;;;5069508;28;20484;-61
2021/07/02 08:47:29;;;;;;;14.82;7.65;;;20.70;72.50;;;;;;5070265;28;20036;-60
2021/07/02 08:49:55;;;;;;;29.92;10.32;;;20.70;72.30;;;;;;5070631;28;20119;-60
2021/07/02 08:52:21;;;;;;;17.15;7.75;;;20.80;72.30;;;;;;5069063;28;20549;-60
2021/07/02 08:54:47;;;;;;;14.38;6.65;;;20.80;72.20;;;;;;5069028;28;20044;-60
2021/07/02 08:57:13;;;;;;;14.30;7.90;;;20.90;72.00;;;;;;5068896;28;20045;-60
2021/07/02 08:59:38;;;;;;;18.80;8.80;;;20.90;71.80;;;;;;5070572;28;20032;-60
2021/07/02 09:02:05;;;;;;;14.10;9.20;;;21.00;71.70;;;;;;5070791;28;20037;-61
2021/07/02 09:04:35;;;;;;;14.05;9.15;;;21.00;71.70;;;;;;5069550;28;20047;-60
2021/07/02 09:07:10;;;;;;;11.02;5.18;;;20.90;71.80;;;;;;5068310;28;20066;-60
2021/07/02 09:09:54;;;;;;;9.70;5.90;;;20.90;72.10;;;;;;5071915;28;20032;-61
2021/07/02 09:12:26;;;;;;;14.32;8.63;;;20.90;72.10;;;;;;5073031;28;20759;-61
2021/07/02 09:15:10;;;;;;;11.37;6.73;;;20.90;72.40;;;;;;5068668;28;20055;-61
2021/07/02 09:17:58;;;;;;;15.23;6.47;;;21.00;73.20;;;;;;5067461;28;20040;-60
2021/07/02 09:20:27;;;;;;;13.43;7.10;;;21.00;73.50;;;;;;5068009;28;20117;-58
2021/07/02 09:23:01;;;;;;;16.45;10.75;;;21.20;73.00;;;;;;5068313;28;20032;-60
2021/07/02 09:25:50;;;;;;;16.50;10.18;;;21.20;71.70;;;;;;5066472;28;20038;-59
2021/07/02 09:28:18;;;;;;;19.25;11.05;;;21.20;71.10;;;;;;5066431;28;20047;-59
2021/07/02 09:30:49;;;;;;;18.75;10.10;;;21.10;71.70;;;;;;5068025;28;20040;-58
2021/07/02 09:33:21;;;;;;;15.32;9.30;;;21.20;71.90;;;;;;5068026;28;20036;-59
2021/07/02 09:35:54;;;;;;;12.75;7.88;;;21.20;71.60;;;;;;5068334;28;20105;-59
2021/07/02 09:38:41;;;;;;;14.48;8.68;;;21.30;71.70;;;;;;5067298;28;20040;-58
2021/07/02 09:41:09;;;;;;;16.75;8.73;;;21.40;71.50;;;;;;5068619;28;20036;-58
2021/07/02 09:43:38;;;;;;;16.70;10.30;;;21.40;71.20;;;;;;5067940;28;20501;-57
2021/07/02 09:46:07;;;;;;;15.68;9.02;;;21.50;70.60;;;;;;5068213;28;20043;-58
2021/07/02 09:48:40;;;;;;;16.65;9.82;;;21.50;70.60;;;;;;5068291;28;20595;-58
2021/07/02 09:51:06;;;;;;;;;;;21.50;70.40;;;;;;5068471;28;20072;-57
2021/07/02 09:53:36;;;;;;;14.85;9.43;;;21.40;70.70;;;;;;5067849;28;19925;-57
2021/07/02 09:56:04;;;;;;;14.50;9.13;;;21.40;70.50;;;;;;5068273;28;20632;-57
2021/07/02 09:58:36;;;;;;;14.18;8.85;;;21.40;70.40;;;;;;5068321;28;20041;-57
2021/07/02 10:01:04;;;;;;;12.50;7.45;;;21.50;69.80;;;;;;5067491;28;20046;-58
2021/07/02 10:03:31;;;;;;;16.98;9.80;;;21.50;70.30;;;;;;5068107;28;20064;-57
2021/07/02 10:06:03;;;;;;;14.38;9.07;;;21.40;70.30;;;;;;5067148;28;20033;-58
2021/07/02 10:08:31;;;;;;;11.45;7.78;;;21.40;70.00;;;;;;5067569;28;20036;-59
2021/07/02 10:11:00;;;;;;;15.65;9.07;;;21.50;70.20;;;;;;5067591;28;20029;-57
2021/07/02 10:13:28;;;;;;;15.55;10.02;;;21.50;70.20;;;;;;5067232;28;20160;-58
2021/07/02 10:15:55;;;;;;;16.88;9.52;;;21.60;69.30;;;;;;5068400;28;20040;-57
2021/07/02 10:18:27;;;;;;;14.43;8.73;;;21.70;69.60;;;;;;5066205;28;20044;-58
2021/07/02 10:20:59;;;;;;;15.10;7.88;;;21.80;69.90;;;;;;5067960;28;20472;-59
2021/07/02 10:23:34;;;;;;;14.77;8.93;;;21.80;69.80;;;;;;5069138;28;20043;-59
2021/07/02 10:26:05;;;;;;;14.13;9.60;;;21.90;70.20;;;;;;5068039;28;20059;-59
2021/07/02 10:28:31;;;;;;;16.95;8.30;;;21.80;69.70;;;;;;5068418;28;20130;-59
2021/07/02 10:30:58;;;;;;;17.50;9.68;;;21.80;69.50;;;;;;5068759;28;20158;-59
2021/07/02 10:33:28;;;;;;;13.25;8.43;;;21.80;69.20;;;;;;5073896;28;20469;-59
2021/07/02 10:36:03;;;;;;;13.57;8.55;;;21.80;68.90;;;;;;5066974;28;20048;-59
2021/07/02 10:38:36;;;;;;;11.90;7.00;;;21.70;69.40;;;;;;5068043;28;20111;-59
2021/07/02 10:41:13;;;;;;;12.63;8.63;;;21.70;69.80;;;;;;5069172;28;20033;-59
2021/07/02 10:44:04;;;;;;;11.80;7.72;;;21.70;69.40;;;;;;5062110;28;20046;-59
2021/07/02 10:46:37;;;;;;;12.73;8.95;;;21.70;69.80;;;;;;5068635;28;20524;-59
2021/07/02 10:49:03;;;;;;;11.57;7.72;;;21.70;69.00;;;;;;5073488;28;20048;-58
2021/07/02 10:51:34;;;;;;;13.40;7.80;;;21.80;69.10;;;;;;5068159;28;20043;-59
2021/07/02 10:54:09;;;;;;;12.32;8.50;;;21.70;69.10;;;;;;5067681;28;20037;-62
2021/07/02 10:56:35;;;;;;;16.20;9.60;;;21.70;68.90;;;;;;5068264;28;20040;-62
2021/07/02 10:59:04;;;;;;;10.65;7.13;;;21.70;69.50;;;;;;5068121;28;20043;-62
2021/07/02 11:01:31;;;;;;;12.32;7.85;;;21.80;69.40;;;;;;5067130;28;20094;-62
2021/07/02 11:04:35;;;;;;;11.25;7.53;;;21.90;69.30;;;;;;5074378;28;20043;-61
2021/07/02 11:07:03;;;;;;;12.07;8.23;;;22.10;68.90;;;;;;5066789;28;20079;-62
2021/07/02 11:09:51;;;;;;;12.38;7.93;;;22.10;68.60;;;;;;5067436;28;20559;-62
2021/07/02 11:12:21;;;;;;;11.93;8.05;;;22.20;68.60;;;;;;5067849;28;20914;-62
2021/07/02 11:14:57;;;;;;;11.77;8.73;;;22.30;68.10;;;;;;5067124;28;20055;-62
2021/07/02 11:17:30;;;;;;;13.38;8.93;;;22.40;66.80;;;;;;5068471;28;20548;-62
2021/07/02 11:20:09;;;;;;;13.88;8.23;;;22.40;66.30;;;;;;5070141;28;20033;-62
2021/07/02 11:22:36;;;;;;;10.13;7.03;;;22.40;66.80;;;;;;5077863;28;20047;-62
2021/07/02 11:25:06;;;;;;;11.98;7.55;;;22.50;67.00;;;;;;5071031;28;20049;-62
2021/07/02 11:27:53;;;;;;;8.32;5.82;;;22.60;66.60;;;;;;5070878;28;20032;-62
2021/07/02 11:33:02;;;;;;;11.23;6.95;;;22.80;66.90;;;;;;5071197;28;20032;-62
2021/07/02 11:35:50;;;;;;;11.73;7.97;;;22.90;66.40;;;;;;5071756;28;20175;-62
2021/07/02 11:38:20;;;;;;;11.02;7.97;;;22.90;66.20;;;;;;5071323;28;20045;-62
2021/07/02 11:40:56;;;;;;;8.65;6.03;;;23.10;66.00;;;;;;5071026;28;20036;-62
2021/07/02 11:43:32;;;;;;;9.35;6.80;;;23.10;65.90;;;;;;5071108;28;20041;-62
2021/07/02 11:46:05;;;;;;;11.50;7.80;;;23.10;66.00;;;;;;5071757;28;20033;-61
2021/07/02 11:48:45;;;;;;;12.15;7.20;;;23.00;63.80;;;;;;5069707;28;20087;-62
2021/07/02 11:51:18;;;;;;;11.23;6.80;;;22.80;64.40;;;;;;5070673;28;20040;-62
2021/07/02 11:53:52;;;;;;;9.50;7.25;;;22.60;65.60;;;;;;5070719;28;20040;-59
2021/07/02 11:56:26;;;;;;;9.40;6.32;;;22.60;65.10;;;;;;5071521;28;20064;-59
2021/07/02 11:59:03;;;;;;;10.52;6.75;;;22.70;65.20;;;;;;5071648;28;20135;-59
2021/07/02 12:01:37;;;;;;;9.25;5.45;;;22.70;64.80;;;;;;5070603;28;20545;-59
2021/07/02 12:04:06;;;;;;;12.35;6.32;;;22.50;64.40;;;;;;5071110;28;20033;-58
2021/07/02 12:06:35;;;;;;;9.27;5.85;;;22.60;66.00;;;;;;5069608;28;20195;-58
2021/07/02 12:09:12;;;;;;;11.23;6.93;;;22.80;66.10;;;;;;5071063;28;20032;-58
2021/07/02 12:11:58;;;;;;;9.50;6.30;;;23.00;65.10;;;;;;5070756;28;20093;-58
2021/07/02 12:14:32;;;;;;;6.88;5.13;;;22.90;65.20;;;;;;5070406;28;20817;-57
2021/07/02 12:16:59;;;;;;;10.93;7.90;;;22.90;65.40;;;;;;5076630;28;20069;-62
2021/07/02 12:19:33;;;;;;;10.63;6.65;;;22.90;65.10;;;;;;5070281;28;20299;-59
2021/07/02 12:22:12;;;;;;;14.02;8.20;;;23.00;65.20;;;;;;5070581;28;20047;-59
2021/07/02 12:24:46;;;;;;;7.82;6.35;;;23.10;65.00;;;;;;5070757;28;20472;-59
2021/07/02 12:27:21;;;;;;;9.98;6.45;;;23.10;64.80;;;;;;5069590;28;20052;-59
2021/07/02 12:29:52;;;;;;;11.30;7.88;;;23.00;64.50;;;;;;5075769;28;20065;-59
2021/07/02 12:32:19;;;;;;;8.85;6.75;;;22.80;64.50;;;;;;5070432;28;20093;-60
2021/07/02 12:34:50;;;;;;;10.20;7.32;;;22.70;66.10;;;;;;5069078;28;20044;-59
2021/07/02 12:37:26;;;;;;;10.32;7.18;;;22.80;65.70;;;;;;5068945;28;20607;-59
2021/07/02 12:39:58;;;;;;;11.35;6.22;;;22.80;65.40;;;;;;5069884;28;20036;-59
2021/07/02 12:42:30;;;;;;;10.60;6.43;;;22.80;65.60;;;;;;5069716;28;20086;-59
2021/07/02 12:44:58;;;;;;;10.03;6.97;;;23.00;66.60;;;;;;5069859;28;20301;-58
2021/07/02 12:47:24;;;;;;;16.73;12.45;;;23.20;65.20;;;;;;5070076;28;20115;-57